Bookmark and Share
Track history (hours):
 

William J. Weber

More information available from US FCC via Universal Licensing System and Coast Guard Vessel Documentation Center.

Last reported at 2014-Apr-16 10:33 UTC. Time now 2014-Apr-21 04:50 UTC.
Position N 29°29' W 094°52'.

Length 23 m.

Type: Towing. MMSI: 367057640.

NotesDate/timePositionNaut miles runAvg speedWind from/ knotsBaromVisibWave heightAir tempDewpointWater temp
2014-Apr-16 10:33N 29°29' W 094°52'5 5.2
2014-Apr-16 09:33N 29°34' W 094°55'6 6.0
2014-Apr-16 08:32N 29°39' W 094°58'9 4.5
2014-Apr-16 06:26N 29°45' W 095°06'0 0.0
2014-Apr-16 05:05N 29°45' W 095°06'0 0.0
2014-Apr-16 03:31N 29°45' W 095°06'0 0.0
2014-Apr-16 00:33N 29°45' W 095°06'0 0.0
2014-Apr-15 22:20N 29°45' W 095°06'0 0.0
2014-Apr-15 21:33N 29°45' W 095°06'0 0.0
2014-Apr-15 20:30N 29°45' W 095°06'0 0.0
2014-Apr-15 19:21N 29°45' W 095°06'0 0.0
2014-Apr-15 18:28N 29°45' W 095°06'0 0.0
2014-Apr-15 17:33N 29°45' W 095°06'0 0.0
2014-Apr-15 16:30N 29°45' W 095°06'0 0.0
2014-Apr-15 15:23N 29°45' W 095°06'3 0.4
2014-Apr-15 06:29N 29°47' W 095°04'2 0.2
2014-Apr-14 22:34N 29°46' W 095°05'  
2014-Apr-08 00:33N 29°28' W 094°51'7 7.3
2014-Apr-07 23:33N 29°35' W 094°56'7 6.6
2014-Apr-07 22:33N 29°41' W 094°59'6 6.3
2014-Apr-07 21:33N 29°45' W 095°04'1 1.2
2014-Apr-07 20:27N 29°46' W 095°05'1 0.6
2014-Apr-07 19:15N 29°46' W 095°06'0 0.0
2014-Apr-07 16:14N 29°46' W 095°06'1 0.3
2014-Apr-07 14:25N 29°46' W 095°05'0 0.0
2014-Apr-06 23:26N 29°46' W 095°05'0 0.0
2014-Apr-06 20:33N 29°46' W 095°05'0 0.0
2014-Apr-06 19:31N 29°46' W 095°05'0 0.2
2014-Apr-06 18:27N 29°46' W 095°05'  

Dump ship's entire track history

sailing weather and tide predictions

William J. Weber — WDC6537 — position and weather